createdAt,value
2018-05-14T00:00:16.772Z,0.00
2018-05-14T00:01:16.792Z,0.00
2018-05-14T00:02:16.748Z,0.00
2018-05-14T00:03:16.736Z,0.00
2018-05-14T00:04:16.720Z,0.00
2018-05-14T00:05:16.700Z,0.00
2018-05-14T00:06:16.694Z,0.00
2018-05-14T00:07:16.668Z,0.00
2018-05-14T00:08:16.665Z,0.00
2018-05-14T00:09:16.681Z,0.00
2018-05-14T00:10:16.647Z,0.00
2018-05-14T00:11:16.623Z,0.00
2018-05-14T00:12:16.607Z,0.00
2018-05-14T00:13:16.585Z,0.00
2018-05-14T00:14:16.584Z,0.00
2018-05-14T00:15:16.568Z,0.00
2018-05-14T00:16:16.552Z,0.00
2018-05-14T00:17:16.529Z,0.00
2018-05-14T00:18:16.516Z,0.00
2018-05-14T00:19:16.511Z,0.00
2018-05-14T00:20:16.487Z,0.00
2018-05-14T00:21:16.481Z,0.00
2018-05-14T00:22:16.467Z,0.00
2018-05-14T00:23:16.450Z,0.00
2018-05-14T00:24:16.433Z,0.00
2018-05-14T00:25:16.416Z,0.00
2018-05-14T00:26:16.420Z,0.00
2018-05-14T00:27:16.391Z,0.00
2018-05-14T00:28:16.375Z,0.00
2018-05-14T00:29:16.368Z,0.00
2018-05-14T00:30:16.349Z,0.00
2018-05-14T00:31:16.336Z,0.00
2018-05-14T00:32:16.335Z,0.00
2018-05-14T00:33:16.319Z,0.00
2018-05-14T00:34:16.285Z,0.00
2018-05-14T00:35:16.279Z,0.00
2018-05-14T00:36:16.269Z,0.00
2018-05-14T00:37:16.256Z,0.00
2018-05-14T00:38:16.237Z,0.00
2018-05-14T00:39:16.217Z,0.00
2018-05-14T00:40:16.204Z,0.00
2018-05-14T00:41:16.200Z,0.00
2018-05-14T00:42:16.208Z,0.00
2018-05-14T00:43:16.170Z,0.00
2018-05-14T00:44:16.149Z,0.00
2018-05-14T00:45:16.140Z,0.00
2018-05-14T00:46:16.125Z,0.00
2018-05-14T00:47:16.111Z,0.00
2018-05-14T00:48:16.095Z,0.00
2018-05-14T00:49:16.075Z,0.00
2018-05-14T00:50:16.066Z,0.00
2018-05-14T00:51:16.049Z,0.00
2018-05-14T00:52:16.079Z,0.00
2018-05-14T00:53:16.025Z,0.00
2018-05-14T00:54:16.016Z,0.00
2018-05-14T00:55:15.996Z,0.00
2018-05-14T00:56:15.986Z,0.00
2018-05-14T00:57:15.964Z,0.00
2018-05-14T00:58:15.957Z,0.00
2018-05-14T00:59:15.938Z,0.00
2018-05-14T01:00:15.918Z,0.00
2018-05-14T01:01:15.915Z,0.00
2018-05-14T01:02:15.903Z,0.00
2018-05-14T01:03:15.893Z,0.00
2018-05-14T01:04:15.871Z,0.00
2018-05-14T01:05:15.876Z,0.00
2018-05-14T01:06:15.861Z,0.00
2018-05-14T01:07:15.851Z,0.00
2018-05-14T01:08:15.819Z,0.00
2018-05-14T01:09:15.797Z,0.00
2018-05-14T01:10:15.797Z,0.00
2018-05-14T01:11:15.768Z,0.00
2018-05-14T01:12:15.754Z,0.00
2018-05-14T01:13:15.744Z,0.00
2018-05-14T01:14:15.742Z,0.00
2018-05-14T01:15:15.720Z,0.00
2018-05-14T01:16:15.699Z,0.00
2018-05-14T01:17:15.694Z,0.00
2018-05-14T01:18:15.675Z,0.00
2018-05-14T01:19:15.650Z,0.00
2018-05-14T01:20:15.643Z,0.00
2018-05-14T01:21:15.636Z,0.00
2018-05-14T01:22:15.617Z,0.00
2018-05-14T01:23:15.601Z,0.00
2018-05-14T01:24:15.585Z,0.00
2018-05-14T01:25:15.589Z,0.00
2018-05-14T01:26:15.565Z,0.00
2018-05-14T01:27:15.551Z,0.00
2018-05-14T01:28:15.601Z,0.00
2018-05-14T01:29:15.515Z,0.00
2018-05-14T01:30:15.502Z,0.00
2018-05-14T01:31:15.488Z,0.00
2018-05-14T01:32:15.479Z,0.00
2018-05-14T01:33:15.460Z,0.00
2018-05-14T01:34:15.443Z,0.00
2018-05-14T01:35:15.431Z,0.00
2018-05-14T01:36:15.418Z,0.00
2018-05-14T01:37:15.402Z,0.00
2018-05-14T01:38:15.386Z,0.00
2018-05-14T01:39:15.370Z,0.00
2018-05-14T01:40:15.356Z,0.00
2018-05-14T01:41:15.350Z,0.00
2018-05-14T01:42:15.336Z,0.00
2018-05-14T01:43:15.324Z,0.00
2018-05-14T01:44:15.302Z,0.00
2018-05-14T01:45:15.283Z,0.00
2018-05-14T01:46:15.272Z,0.00
2018-05-14T01:47:15.256Z,0.00
2018-05-14T01:48:15.243Z,0.00
2018-05-14T01:49:15.234Z,0.00
2018-05-14T01:50:15.208Z,0.00
2018-05-14T01:51:15.207Z,0.00
2018-05-14T01:52:15.183Z,0.00
2018-05-14T01:53:15.187Z,0.00
2018-05-14T01:54:15.151Z,0.00
2018-05-14T01:55:15.142Z,0.00
2018-05-14T01:56:15.129Z,0.00
2018-05-14T01:57:15.116Z,0.00
2018-05-14T01:58:15.107Z,0.00
2018-05-14T01:59:15.084Z,0.00
2018-05-14T02:00:15.067Z,0.00
2018-05-14T02:01:15.059Z,0.00
2018-05-14T02:02:15.042Z,0.00
2018-05-14T02:03:15.030Z,0.00
2018-05-14T02:04:15.021Z,0.00
2018-05-14T02:05:14.998Z,0.00
2018-05-14T02:06:14.997Z,0.00
2018-05-14T02:07:14.975Z,0.00
2018-05-14T02:08:14.960Z,0.00
2018-05-14T02:09:14.944Z,0.00
2018-05-14T02:10:14.934Z,0.00
2018-05-14T02:11:14.912Z,0.00
2018-05-14T02:12:14.902Z,0.00
2018-05-14T02:13:14.886Z,0.00
2018-05-14T02:14:14.880Z,0.00
2018-05-14T02:15:14.851Z,0.00
2018-05-14T02:16:14.851Z,0.00
2018-05-14T02:17:14.828Z,0.00
2018-05-14T02:18:14.829Z,0.00
2018-05-14T02:19:14.803Z,0.00
2018-05-14T02:20:14.793Z,0.00
2018-05-14T02:21:14.774Z,0.00
2018-05-14T02:22:14.756Z,0.00
2018-05-14T02:23:14.736Z,0.00
2018-05-14T02:24:14.729Z,0.00
2018-05-14T02:25:14.717Z,0.00
2018-05-14T02:26:14.705Z,0.00
2018-05-14T02:27:14.703Z,0.00
2018-05-14T02:28:14.666Z,0.00
2018-05-14T02:29:14.790Z,0.00
2018-05-14T02:30:14.641Z,0.00
2018-05-14T02:31:14.625Z,0.00
2018-05-14T02:32:14.615Z,0.00
2018-05-14T02:33:14.609Z,0.00
2018-05-14T02:34:14.590Z,0.00
2018-05-14T02:35:14.568Z,0.00
2018-05-14T02:36:14.552Z,0.00
2018-05-14T02:37:14.561Z,0.00
2018-05-14T02:38:14.536Z,0.00
2018-05-14T02:39:14.514Z,0.00
2018-05-14T02:40:14.494Z,0.00
2018-05-14T02:41:14.488Z,0.00
2018-05-14T02:42:14.468Z,0.00
2018-05-14T02:43:14.462Z,0.00
2018-05-14T02:44:14.446Z,0.00
2018-05-14T02:45:14.430Z,0.00
2018-05-14T02:46:14.421Z,0.00
2018-05-14T02:47:14.404Z,0.00
2018-05-14T02:48:14.386Z,0.00
2018-05-14T02:49:14.382Z,0.00
2018-05-14T02:50:14.354Z,0.00
2018-05-14T02:51:14.345Z,0.00
2018-05-14T02:52:14.329Z,0.00
2018-05-14T02:53:14.316Z,0.00
2018-05-14T02:54:14.302Z,0.00
2018-05-14T02:55:14.293Z,0.00
2018-05-14T02:56:14.272Z,0.00
2018-05-14T02:57:14.259Z,0.00
2018-05-14T02:58:14.240Z,0.00
2018-05-14T02:59:14.235Z,0.00
2018-05-14T03:00:14.217Z,0.00
2018-05-14T03:01:14.209Z,0.00
2018-05-14T03:02:14.186Z,0.00
2018-05-14T03:03:14.170Z,0.00
2018-05-14T03:04:14.158Z,0.00
2018-05-14T03:05:14.145Z,0.00
2018-05-14T03:06:14.131Z,0.00
2018-05-14T03:07:14.122Z,0.00
2018-05-14T03:08:14.107Z,4.00
2018-05-14T03:09:14.088Z,4.00
2018-05-14T03:10:14.068Z,4.00
2018-05-14T03:11:14.059Z,0.00
2018-05-14T03:12:14.045Z,0.00
2018-05-14T03:13:14.030Z,4.00
2018-05-14T03:14:14.017Z,4.00
2018-05-14T03:15:13.998Z,4.00
2018-05-14T03:16:13.992Z,4.00
2018-05-14T03:17:13.965Z,8.00
2018-05-14T03:18:14.042Z,8.00
2018-05-14T03:19:13.949Z,8.00
2018-05-14T03:20:13.933Z,8.00
2018-05-14T03:21:13.914Z,8.00
2018-05-14T03:22:13.909Z,12.00
2018-05-14T03:23:13.889Z,8.00
2018-05-14T03:24:13.876Z,12.00
2018-05-14T03:25:13.856Z,12.00
2018-05-14T03:26:13.847Z,12.00
2018-05-14T03:27:13.831Z,16.00
2018-05-14T03:28:13.815Z,20.00
2018-05-14T03:29:13.802Z,24.00
2018-05-14T03:30:13.793Z,24.00
2018-05-14T03:31:13.789Z,24.00
2018-05-14T03:32:13.783Z,32.00
2018-05-14T03:33:13.743Z,36.00
2018-05-14T03:34:13.733Z,40.00
2018-05-14T03:35:13.727Z,48.00
2018-05-14T03:36:13.708Z,56.00
2018-05-14T03:37:13.689Z,56.00
2018-05-14T03:38:13.669Z,64.00
2018-05-14T03:39:13.663Z,68.00
2018-05-14T03:40:13.641Z,72.00
2018-05-14T03:41:13.628Z,76.00
2018-05-14T03:42:13.618Z,80.00
2018-05-14T03:43:13.596Z,88.00
2018-05-14T03:44:13.583Z,92.00
2018-05-14T03:45:13.569Z,92.00
2018-05-14T03:46:13.561Z,104.00
2018-05-14T03:47:13.554Z,124.00
2018-05-14T03:48:13.526Z,144.00
2018-05-14T03:49:13.510Z,160.00
2018-05-14T03:50:13.497Z,168.00
2018-05-14T03:51:13.485Z,180.00
2018-05-14T03:52:13.470Z,208.00
2018-05-14T03:53:13.464Z,232.00
2018-05-14T03:54:13.445Z,260.00
2018-05-14T03:55:13.430Z,272.00
2018-05-14T03:56:13.410Z,272.00
2018-05-14T03:57:13.397Z,272.00
2018-05-14T03:58:13.387Z,276.00
2018-05-14T03:59:13.372Z,288.00
2018-05-14T04:00:13.355Z,304.00
2018-05-14T04:01:13.349Z,320.00
2018-05-14T04:02:13.362Z,352.00
2018-05-14T04:03:13.327Z,376.00
2018-05-14T04:04:13.304Z,396.00
2018-05-14T04:05:13.285Z,440.00
2018-05-14T04:06:13.276Z,504.00
2018-05-14T04:07:13.256Z,576.00
2018-05-14T04:08:13.241Z,648.00
2018-05-14T04:09:13.227Z,712.00
2018-05-14T04:10:13.214Z,760.00
2018-05-14T04:11:13.196Z,816.00
2018-05-14T04:12:13.186Z,852.00
2018-05-14T04:13:13.173Z,864.00
2018-05-14T04:14:13.156Z,860.00
2018-05-14T04:15:13.157Z,832.00
2018-05-14T04:16:13.128Z,816.00
2018-05-14T04:17:13.117Z,828.00
2018-05-14T04:18:13.112Z,848.00
2018-05-14T04:19:13.094Z,900.00
2018-05-14T04:20:13.080Z,980.00
2018-05-14T04:21:13.060Z,1012.00
2018-05-14T04:22:13.044Z,1032.00
2018-05-14T04:23:13.038Z,1060.00
2018-05-14T04:24:13.019Z,1088.00
2018-05-14T04:25:13.010Z,1120.00
2018-05-14T04:26:12.993Z,1152.00
2018-05-14T04:27:12.974Z,1160.00
2018-05-14T04:28:12.971Z,1120.00
2018-05-14T04:29:12.950Z,1056.00
2018-05-14T04:30:13.004Z,1000.00
2018-05-14T04:31:12.921Z,948.00
2018-05-14T04:32:12.909Z,892.00
2018-05-14T04:33:12.893Z,848.00
2018-05-14T04:34:12.879Z,836.00
2018-05-14T04:35:12.873Z,844.00
2018-05-14T04:36:12.851Z,860.00
2018-05-14T04:37:12.853Z,872.00
2018-05-14T04:38:12.825Z,892.00
2018-05-14T04:39:12.813Z,904.00
2018-05-14T04:40:12.803Z,920.00
2018-05-14T04:41:12.784Z,940.00
2018-05-14T04:42:12.768Z,948.00
2018-05-14T04:43:12.762Z,984.00
2018-05-14T04:44:12.743Z,1024.00
2018-05-14T04:45:12.736Z,1040.00
2018-05-14T04:46:12.723Z,1032.00
2018-05-14T04:47:12.701Z,1004.00
2018-05-14T04:48:12.688Z,992.00
2018-05-14T04:49:12.678Z,1016.00
2018-05-14T04:50:12.666Z,1076.00
2018-05-14T04:51:12.654Z,1132.00
2018-05-14T04:52:12.637Z,1164.00
2018-05-14T04:53:12.626Z,1204.00
2018-05-14T04:54:12.615Z,1240.00
2018-05-14T04:55:12.596Z,1240.00
2018-05-14T04:56:12.577Z,1220.00
2018-05-14T04:57:12.573Z,1212.00
2018-05-14T04:58:12.548Z,1192.00
2018-05-14T04:59:12.576Z,1184.00
2018-05-14T05:00:12.522Z,1176.00
2018-05-14T05:01:12.517Z,1180.00
2018-05-14T05:02:12.500Z,1192.00
2018-05-14T05:03:12.481Z,1212.00
2018-05-14T05:04:12.468Z,1204.00
2018-05-14T05:05:12.462Z,1188.00
2018-05-14T05:06:12.440Z,1200.00
2018-05-14T05:07:12.430Z,1272.00
2018-05-14T05:08:12.420Z,1376.00
2018-05-14T05:09:12.404Z,1480.00
2018-05-14T05:10:12.388Z,1580.00
2018-05-14T05:11:12.382Z,1728.00
2018-05-14T05:12:12.360Z,1860.00
2018-05-14T05:13:12.347Z,1936.00
2018-05-14T05:14:12.334Z,1920.00
2018-05-14T05:15:12.326Z,1840.00
2018-05-14T05:16:12.306Z,1788.00
2018-05-14T05:17:12.379Z,1776.00
2018-05-14T05:18:12.291Z,1800.00
2018-05-14T05:19:12.264Z,1852.00
2018-05-14T05:20:12.275Z,1904.00
2018-05-14T05:21:12.244Z,1956.00
2018-05-14T05:22:12.220Z,2004.00
2018-05-14T05:23:12.213Z,2052.00
2018-05-14T05:24:12.197Z,2076.00
2018-05-14T05:25:12.181Z,2028.00
2018-05-14T05:26:12.172Z,1900.00
2018-05-14T05:27:12.160Z,1744.00
2018-05-14T05:28:12.140Z,1620.00
2018-05-14T05:29:12.135Z,1536.00
2018-05-14T05:30:12.112Z,1432.00
2018-05-14T05:31:12.106Z,1344.00
2018-05-14T05:32:12.086Z,1324.00
2018-05-14T05:33:12.080Z,1220.00
2018-05-14T05:34:12.067Z,1068.00
2018-05-14T05:35:12.051Z,1016.00
2018-05-14T05:36:12.032Z,1092.00
2018-05-14T05:37:12.019Z,1196.00
2018-05-14T05:38:12.007Z,1372.00
2018-05-14T05:39:12.004Z,1528.00
2018-05-14T05:40:11.975Z,1640.00
2018-05-14T05:41:11.964Z,1692.00
2018-05-14T05:42:11.957Z,1756.00
2018-05-14T05:43:11.938Z,1884.00
2018-05-14T05:44:11.927Z,2068.00
2018-05-14T05:45:11.967Z,2248.00
2018-05-14T05:46:11.896Z,2384.00
2018-05-14T05:47:11.884Z,2468.00
2018-05-14T05:48:11.867Z,2452.00
2018-05-14T05:49:11.863Z,2384.00
2018-05-14T05:50:11.848Z,2476.00
2018-05-14T05:51:11.832Z,2580.00
2018-05-14T05:52:11.820Z,2652.00
2018-05-14T05:53:11.804Z,2700.00
2018-05-14T05:54:11.784Z,2756.00
2018-05-14T05:55:11.771Z,2820.00
2018-05-14T05:56:11.760Z,2924.00
2018-05-14T05:57:11.751Z,3024.00
2018-05-14T05:58:11.731Z,3124.00
2018-05-14T05:59:11.721Z,3232.00
2018-05-14T06:00:11.715Z,3332.00
2018-05-14T06:01:11.700Z,3336.00
2018-05-14T06:02:11.674Z,3196.00
2018-05-14T06:03:11.663Z,3100.00
2018-05-14T06:04:11.661Z,3160.00
2018-05-14T06:05:11.638Z,3160.00
2018-05-14T06:06:11.625Z,3148.00
2018-05-14T06:07:11.618Z,3076.00
2018-05-14T06:08:11.596Z,2968.00
2018-05-14T06:09:11.590Z,2788.00
2018-05-14T06:10:11.570Z,2532.00
2018-05-14T06:11:11.557Z,2808.00
2018-05-14T06:12:11.544Z,3136.00
2018-05-14T06:13:11.538Z,3104.00
2018-05-14T06:14:11.517Z,2988.00
2018-05-14T06:15:11.509Z,2896.00
2018-05-14T06:16:11.496Z,2720.00
2018-05-14T06:17:11.483Z,2504.00
2018-05-14T06:18:11.464Z,2324.00
2018-05-14T06:19:11.448Z,2136.00
2018-05-14T06:20:11.435Z,2052.00
2018-05-14T06:21:11.426Z,2128.00
2018-05-14T06:22:11.410Z,2324.00
2018-05-14T06:23:11.400Z,2460.00
2018-05-14T06:24:11.387Z,2584.00
2018-05-14T06:25:11.373Z,2828.00
2018-05-14T06:26:11.361Z,3284.00
2018-05-14T06:27:11.344Z,3836.00
2018-05-14T06:28:11.335Z,4068.00
2018-05-14T06:29:11.325Z,4064.00
2018-05-14T06:30:11.317Z,4132.00
2018-05-14T06:31:11.287Z,4176.00
2018-05-14T06:32:11.277Z,4440.00
2018-05-14T06:33:11.261Z,4756.00
2018-05-14T06:34:11.252Z,5016.00
2018-05-14T06:35:11.236Z,5208.00
2018-05-14T06:36:11.223Z,5384.00
2018-05-14T06:37:11.217Z,5376.00
2018-05-14T06:38:11.207Z,5400.00
2018-05-14T06:39:11.182Z,5440.00
2018-05-14T06:40:11.175Z,5348.00
2018-05-14T06:41:11.163Z,5204.00
2018-05-14T06:42:11.146Z,4956.00
2018-05-14T06:43:11.131Z,4684.00
2018-05-14T06:44:11.120Z,4316.00
2018-05-14T06:45:11.111Z,4032.00
2018-05-14T06:46:11.089Z,3872.00
2018-05-14T06:47:11.089Z,4016.00
2018-05-14T06:48:11.064Z,4076.00
2018-05-14T06:49:11.056Z,4344.00
2018-05-14T06:50:11.041Z,4492.00
2018-05-14T06:51:11.034Z,4532.00
2018-05-14T06:52:11.012Z,4476.00
2018-05-14T06:53:11.009Z,4348.00
2018-05-14T06:54:10.986Z,4256.00
2018-05-14T06:55:11.030Z,4384.00
2018-05-14T06:56:10.960Z,4432.00
2018-05-14T06:57:10.948Z,4564.00
2018-05-14T06:58:10.933Z,4716.00
2018-05-14T06:59:10.919Z,5016.00
2018-05-14T07:00:10.938Z,5668.00
2018-05-14T07:01:10.893Z,6504.00
2018-05-14T07:02:10.880Z,7100.00
2018-05-14T07:03:10.963Z,7312.00
2018-05-14T07:04:10.855Z,6900.00
2018-05-14T07:05:10.843Z,6108.00
2018-05-14T07:06:10.835Z,5588.00
2018-05-14T07:07:10.816Z,5624.00
2018-05-14T07:08:10.809Z,5736.00
2018-05-14T07:09:10.791Z,6924.00
2018-05-14T07:10:10.778Z,8344.00
2018-05-14T07:11:10.772Z,9320.00
2018-05-14T07:12:10.759Z,9816.00
2018-05-14T07:13:10.739Z,9892.00
2018-05-14T07:14:10.732Z,10168.00
2018-05-14T07:15:10.714Z,10164.00
2018-05-14T07:16:10.707Z,9920.00
2018-05-14T07:17:10.696Z,9328.00
2018-05-14T07:18:10.681Z,8648.00
2018-05-14T07:19:10.668Z,7784.00
2018-05-14T07:20:10.656Z,6960.00
2018-05-14T07:21:10.639Z,7348.00
2018-05-14T07:22:10.624Z,8188.00
2018-05-14T07:23:10.620Z,8312.00
2018-05-14T07:24:10.604Z,8240.00
2018-05-14T07:25:10.586Z,9024.00
2018-05-14T07:26:10.587Z,9084.00
2018-05-14T07:27:10.568Z,8876.00
2018-05-14T07:28:10.552Z,9724.00
2018-05-14T07:29:10.545Z,10548.00
2018-05-14T07:30:10.612Z,11664.00
2018-05-14T07:31:10.520Z,12408.00
2018-05-14T07:32:10.509Z,12172.00
2018-05-14T07:33:10.487Z,11816.00
2018-05-14T07:34:10.491Z,11828.00
2018-05-14T07:35:10.459Z,11220.00
2018-05-14T07:36:10.457Z,9612.00
2018-05-14T07:37:10.446Z,8508.00
2018-05-14T07:38:10.433Z,7816.00
2018-05-14T07:39:10.419Z,7364.00
2018-05-14T07:40:10.408Z,7064.00
2018-05-14T07:41:10.391Z,6716.00
2018-05-14T07:42:10.379Z,6588.00
2018-05-14T07:43:10.369Z,6708.00
2018-05-14T07:44:10.357Z,6656.00
2018-05-14T07:45:10.346Z,7416.00
2018-05-14T07:46:10.424Z,7708.00
2018-05-14T07:47:10.331Z,7480.00
2018-05-14T07:48:10.345Z,8072.00
2018-05-14T07:49:10.302Z,8156.00
2018-05-14T07:50:10.286Z,7260.00
2018-05-14T07:51:10.280Z,6392.00
2018-05-14T07:52:10.261Z,6768.00
2018-05-14T07:53:10.250Z,7020.00
2018-05-14T07:54:10.235Z,7416.00
2018-05-14T07:55:10.229Z,8604.00
2018-05-14T07:56:10.216Z,8300.00
2018-05-14T07:57:10.206Z,7376.00
2018-05-14T07:58:10.194Z,7636.00
2018-05-14T07:59:10.175Z,8068.00
2018-05-14T08:00:10.162Z,8748.00
2018-05-14T08:01:10.158Z,8912.00
2018-05-14T08:02:10.141Z,8524.00
2018-05-14T08:03:10.131Z,8148.00
2018-05-14T08:04:10.126Z,8040.00
2018-05-14T08:05:10.105Z,8292.00
2018-05-14T08:06:10.096Z,8464.00
2018-05-14T08:07:10.085Z,8668.00
2018-05-14T08:08:10.066Z,9012.00
2018-05-14T08:09:10.057Z,8692.00
2018-05-14T08:10:10.045Z,8804.00
2018-05-14T08:11:10.034Z,9440.00
2018-05-14T08:12:10.018Z,10256.00
2018-05-14T08:13:10.015Z,10372.00
2018-05-14T08:14:10.001Z,10836.00
2018-05-14T08:15:09.992Z,11564.00
2018-05-14T08:16:09.976Z,11816.00
2018-05-14T08:17:09.965Z,11924.00
2018-05-14T08:18:09.945Z,11836.00
2018-05-14T08:19:09.936Z,10272.00
2018-05-14T08:20:09.922Z,8504.00
2018-05-14T08:21:09.913Z,7648.00
2018-05-14T08:22:09.898Z,6736.00
2018-05-14T08:23:09.888Z,6228.00
2018-05-14T08:24:09.886Z,5904.00
2018-05-14T08:25:09.865Z,5732.00
2018-05-14T08:26:09.856Z,5272.00
2018-05-14T08:27:09.840Z,5192.00
2018-05-14T08:28:09.833Z,4844.00
2018-05-14T08:29:09.820Z,5316.00
2018-05-14T08:30:09.811Z,6312.00
2018-05-14T08:31:09.798Z,8088.00
2018-05-14T08:32:09.786Z,9492.00
2018-05-14T08:33:09.770Z,10504.00
2018-05-14T08:34:09.761Z,9624.00
2018-05-14T08:35:09.744Z,8760.00
2018-05-14T08:36:09.738Z,7744.00
2018-05-14T08:37:09.757Z,7568.00
2018-05-14T08:38:09.706Z,7788.00
2018-05-14T08:39:09.703Z,7316.00
2018-05-14T08:40:09.691Z,7080.00
2018-05-14T08:41:09.674Z,7768.00
2018-05-14T08:42:09.693Z,8764.00
2018-05-14T08:43:09.649Z,8904.00
2018-05-14T08:44:09.642Z,8128.00
2018-05-14T08:45:09.626Z,7092.00
2018-05-14T08:46:09.614Z,5916.00
2018-05-14T08:47:09.601Z,5408.00
2018-05-14T08:48:09.594Z,5372.00
2018-05-14T08:49:09.581Z,5348.00
2018-05-14T08:50:09.564Z,5572.00
2018-05-14T08:51:09.564Z,7264.00
2018-05-14T08:52:09.542Z,9928.00
2018-05-14T08:53:09.536Z,12404.00
2018-05-14T08:54:09.543Z,13544.00
2018-05-14T08:55:09.503Z,12344.00
2018-05-14T08:56:09.497Z,10620.00
2018-05-14T08:57:09.481Z,10864.00
2018-05-14T08:58:09.468Z,12604.00
2018-05-14T08:59:09.459Z,11480.00
2018-05-14T09:00:09.442Z,9688.00
2018-05-14T09:01:09.437Z,7908.00
2018-05-14T09:02:09.420Z,8516.00
2018-05-14T09:03:09.410Z,9176.00
2018-05-14T09:04:09.404Z,9276.00
2018-05-14T09:05:09.388Z,8736.00
2018-05-14T09:06:09.378Z,8140.00
2018-05-14T09:07:09.370Z,8372.00
2018-05-14T09:08:09.357Z,8784.00
2018-05-14T09:09:09.338Z,9156.00
2018-05-14T09:10:09.332Z,9540.00
2018-05-14T09:11:09.319Z,9116.00
2018-05-14T09:12:09.315Z,8912.00
2018-05-14T09:13:09.299Z,8672.00
2018-05-14T09:14:09.286Z,8692.00
2018-05-14T09:15:09.283Z,8404.00
2018-05-14T09:16:09.264Z,8136.00
2018-05-14T09:17:09.252Z,8420.00
2018-05-14T09:18:09.242Z,9164.00
2018-05-14T09:19:09.223Z,10408.00
2018-05-14T09:20:09.216Z,11772.00
2018-05-14T09:21:09.207Z,12324.00
2018-05-14T09:22:09.191Z,11596.00
2018-05-14T09:23:09.185Z,10832.00
2018-05-14T09:24:09.173Z,10476.00
2018-05-14T09:25:09.161Z,10996.00
2018-05-14T09:26:09.164Z,12172.00
2018-05-14T09:27:09.132Z,13876.00
2018-05-14T09:28:09.119Z,16260.00
2018-05-14T09:29:09.116Z,16824.00
2018-05-14T09:30:09.097Z,16644.00
2018-05-14T09:31:09.093Z,16856.00
2018-05-14T09:32:09.088Z,17472.00
2018-05-14T09:33:09.065Z,17952.00
2018-05-14T09:34:09.053Z,16388.00
2018-05-14T09:35:09.049Z,15204.00
2018-05-14T09:36:09.036Z,15092.00
2018-05-14T09:37:09.023Z,16452.00
2018-05-14T09:38:09.014Z,18272.00
2018-05-14T09:39:09.002Z,20096.00
2018-05-14T09:40:08.995Z,22272.00
2018-05-14T09:41:08.985Z,24704.00
2018-05-14T09:42:08.968Z,24800.00
2018-05-14T09:43:08.965Z,25184.00
2018-05-14T09:44:08.949Z,25024.00
2018-05-14T09:45:08.945Z,30368.00
2018-05-14T09:46:08.929Z,36288.00
2018-05-14T09:47:08.926Z,35840.00
2018-05-14T09:48:08.919Z,38400.00
2018-05-14T09:49:08.909Z,39936.00
2018-05-14T09:50:08.891Z,42624.00
2018-05-14T09:51:08.891Z,43776.00
2018-05-14T09:52:08.881Z,43296.00
2018-05-14T09:53:08.878Z,43136.00
2018-05-14T09:54:08.865Z,31552.00
2018-05-14T09:55:08.850Z,33408.00
2018-05-14T09:56:08.843Z,42624.00
2018-05-14T09:57:08.836Z,51328.00
2018-05-14T09:58:08.830Z,51072.00
2018-05-14T09:59:08.821Z,58336.00
2018-05-14T10:00:08.818Z,46432.00
2018-05-14T10:01:08.814Z,56000.00
2018-05-14T10:02:08.798Z,72512.00
2018-05-14T10:03:08.792Z,62752.00
2018-05-14T10:04:08.785Z,57280.00
2018-05-14T10:05:08.786Z,40928.00
2018-05-14T10:06:08.777Z,57184.00
2018-05-14T10:07:08.766Z,35616.00
2018-05-14T10:08:08.766Z,34816.00
2018-05-14T10:09:08.760Z,74112.00
2018-05-14T10:10:08.753Z,73440.00
2018-05-14T10:11:08.744Z,67488.00
2018-05-14T10:12:08.731Z,43552.00
2018-05-14T10:13:08.794Z,31936.00
2018-05-14T10:14:08.724Z,48448.00
2018-05-14T10:15:08.717Z,58144.00
2018-05-14T10:16:08.713Z,37056.00
2018-05-14T10:17:08.712Z,29440.00
2018-05-14T10:18:08.699Z,32672.00
2018-05-14T10:19:08.702Z,37696.00
2018-05-14T10:20:08.699Z,32320.00
2018-05-14T10:21:08.687Z,45408.00
2018-05-14T10:22:08.680Z,68768.00
2018-05-14T10:23:08.680Z,86432.00
2018-05-14T10:24:08.667Z,59072.00
2018-05-14T10:25:08.670Z,36096.00
2018-05-14T10:26:08.660Z,28288.00
2018-05-14T10:27:08.651Z,40032.00
2018-05-14T10:28:08.648Z,21568.00
2018-05-14T10:29:08.647Z,16752.00
2018-05-14T10:30:08.644Z,20352.00
2018-05-14T10:31:08.643Z,21728.00
2018-05-14T10:32:08.631Z,26784.00
2018-05-14T10:33:08.629Z,38592.00
2018-05-14T10:34:08.622Z,38272.00
2018-05-14T10:35:08.621Z,34688.00
2018-05-14T10:36:08.609Z,31264.00
2018-05-14T10:37:08.604Z,32032.00
2018-05-14T10:38:08.593Z,49056.00
2018-05-14T10:39:08.593Z,73184.00
2018-05-14T10:40:08.590Z,80416.00
2018-05-14T10:41:08.575Z,73216.00
2018-05-14T10:42:08.570Z,82976.00
2018-05-14T10:43:08.569Z,52192.00
2018-05-14T10:44:08.564Z,45056.00
2018-05-14T10:45:08.565Z,98368.00
2018-05-14T10:46:08.552Z,41376.00
2018-05-14T10:47:08.548Z,54688.00
2018-05-14T10:48:08.546Z,94496.00
2018-05-14T10:49:08.539Z,99200.00
2018-05-14T10:50:08.536Z,96384.00
2018-05-14T10:51:08.529Z,102912.00
2018-05-14T10:52:08.523Z,112224.00
2018-05-14T10:53:08.517Z,98784.00
2018-05-14T10:54:08.520Z,106496.00
2018-05-14T10:55:08.516Z,100032.00
2018-05-14T10:56:08.507Z,101920.00
2018-05-14T10:57:08.515Z,102560.00
2018-05-14T10:58:08.507Z,106080.00
2018-05-14T10:59:08.504Z,42048.00
2018-05-14T11:00:08.517Z,55264.00
2018-05-14T11:01:08.518Z,31456.00
2018-05-14T11:02:08.497Z,68160.00
2018-05-14T11:03:08.506Z,102944.00
2018-05-14T11:04:08.539Z,98496.00
2018-05-14T11:05:08.494Z,106880.00
2018-05-14T11:06:08.481Z,104192.00
2018-05-14T11:07:08.482Z,96288.00
2018-05-14T11:08:08.494Z,76704.00
2018-05-14T11:09:08.478Z,48032.00
2018-05-14T11:10:08.475Z,72288.00
2018-05-14T11:11:08.478Z,90880.00
2018-05-14T11:12:08.472Z,63200.00
2018-05-14T11:13:08.472Z,58976.00
2018-05-14T11:14:08.475Z,54112.00
2018-05-14T11:15:08.472Z,66976.00
2018-05-14T11:16:08.475Z,58048.00
2018-05-14T11:17:08.465Z,29248.00
2018-05-14T11:18:08.462Z,46016.00
2018-05-14T11:19:08.462Z,46528.00
2018-05-14T11:20:08.462Z,71584.00
2018-05-14T11:21:08.462Z,77408.00
2018-05-14T11:22:08.452Z,67680.00
2018-05-14T11:23:08.449Z,68704.00
2018-05-14T11:24:08.449Z,79392.00
2018-05-14T11:25:08.456Z,78720.00
2018-05-14T11:26:08.449Z,70144.00
2018-05-14T11:27:08.440Z,57536.00
2018-05-14T11:28:08.446Z,49632.00
2018-05-14T11:29:08.443Z,81280.00
2018-05-14T11:30:08.433Z,87424.00
2018-05-14T11:31:08.440Z,76992.00
2018-05-14T11:32:08.439Z,82112.00
2018-05-14T11:33:08.433Z,78080.00
2018-05-14T11:34:08.430Z,61024.00
2018-05-14T11:35:08.431Z,37760.00
2018-05-14T11:36:08.430Z,80672.00
2018-05-14T11:37:08.427Z,72448.00
2018-05-14T11:38:08.427Z,76064.00
2018-05-14T11:39:08.427Z,75136.00
2018-05-14T11:40:08.427Z,46752.00
2018-05-14T11:41:08.430Z,76480.00
2018-05-14T11:42:08.430Z,58656.00
2018-05-14T11:43:08.431Z,38784.00
2018-05-14T11:44:08.433Z,36672.00
2018-05-14T11:45:08.424Z,54784.00
2018-05-14T11:46:08.427Z,34560.00
2018-05-14T11:47:08.433Z,71008.00
2018-05-14T11:48:08.429Z,87232.00
2018-05-14T11:49:08.437Z,77952.00
2018-05-14T11:50:08.430Z,44416.00
2018-05-14T11:51:08.427Z,68480.00
2018-05-14T11:52:08.427Z,81312.00
2018-05-14T11:53:08.428Z,81440.00
2018-05-14T11:54:08.432Z,43136.00
2018-05-14T11:55:08.427Z,82912.00
2018-05-14T11:56:08.430Z,78816.00
2018-05-14T11:57:08.430Z,62016.00
2018-05-14T11:58:08.446Z,29120.00
2018-05-14T11:59:08.436Z,47552.00
2018-05-14T12:00:08.446Z,74720.00
2018-05-14T12:01:08.433Z,73856.00
2018-05-14T12:02:08.440Z,72864.00
2018-05-14T12:03:08.506Z,75712.00
2018-05-14T12:04:08.469Z,79424.00
2018-05-14T12:05:08.449Z,84192.00
2018-05-14T12:06:08.453Z,75680.00
2018-05-14T12:07:08.443Z,61120.00
2018-05-14T12:08:08.453Z,48448.00
2018-05-14T12:09:08.455Z,44544.00
2018-05-14T12:10:08.473Z,40480.00
2018-05-14T12:11:08.475Z,36448.00
2018-05-14T12:12:08.521Z,32480.00
2018-05-14T12:13:08.465Z,28672.00
2018-05-14T12:14:08.473Z,35168.00
2018-05-14T12:15:08.472Z,39968.00
2018-05-14T12:16:08.587Z,42016.00
2018-05-14T12:17:08.484Z,43008.00
2018-05-14T12:18:08.535Z,42624.00
2018-05-14T12:19:08.483Z,43744.00
2018-05-14T12:20:08.484Z,44992.00